Aslo, Minnesota
Current Conditions -  °F | °C
As of 7:13 AM on Sunday 21 Dec 2014 (Local Time) from KMZH Reporting Station
Overcast Overcast  
Wind Chill: 32°   Ceiling: 900
Heat Index: 32°   Visibility: 7mi
Dew Point: 28°   Wind: 3mph
Humidity: 87%   Direction: 180°S
Pressure: 29.88"   Gusts: NA
Location:  46.2004°N, 92.675°W
Report Text: KMZH 211313Z AUTO 18003KT 7SM OVC009 00/M02 A2988 RMK AO2
Loading
Personal Weather Stations






























Interactive Weather Map New forecast layout! Learn more

10-Day Weather Forecast

Advertisements
Track Severe Weather on mobile